createdAt,value
2017-07-09T00:00:43.720Z,19.10
2017-07-09T00:03:12.534Z,19.00
2017-07-09T00:05:41.400Z,19.00
2017-07-09T00:08:09.893Z,19.00
2017-07-09T00:10:38.349Z,19.00
2017-07-09T00:13:06.914Z,19.00
2017-07-09T00:15:35.380Z,19.20
2017-07-09T00:18:03.877Z,19.10
2017-07-09T00:20:32.330Z,19.00
2017-07-09T00:23:00.775Z,18.90
2017-07-09T00:25:29.270Z,18.90
2017-07-09T00:27:58.479Z,18.90
2017-07-09T00:30:26.928Z,19.00
2017-07-09T00:32:55.410Z,18.90
2017-07-09T00:35:23.831Z,18.90
2017-07-09T00:37:52.265Z,18.80
2017-07-09T00:40:20.739Z,18.80
2017-07-09T00:42:49.238Z,18.80
2017-07-09T00:45:17.733Z,18.80
2017-07-09T00:47:46.181Z,18.80
2017-07-09T00:50:14.648Z,18.80
2017-07-09T00:52:43.145Z,18.80
2017-07-09T00:55:11.565Z,18.80
2017-07-09T00:57:40.057Z,18.70
2017-07-09T01:00:08.548Z,18.70
2017-07-09T01:02:36.984Z,18.50
2017-07-09T01:05:05.832Z,18.70
2017-07-09T01:07:35.501Z,18.60
2017-07-09T01:10:03.941Z,18.50
2017-07-09T01:12:32.359Z,18.40
2017-07-09T01:15:01.980Z,18.40
2017-07-09T01:17:31.174Z,18.50
2017-07-09T01:20:00.418Z,18.50
2017-07-09T01:22:28.859Z,18.40
2017-07-09T01:24:57.290Z,18.40
2017-07-09T01:27:25.788Z,18.40
2017-07-09T01:29:54.233Z,18.30
2017-07-09T01:32:23.461Z,18.20
2017-07-09T01:34:51.957Z,18.10
2017-07-09T01:37:20.412Z,18.00
2017-07-09T01:39:48.833Z,18.00
2017-07-09T01:42:17.338Z,18.00
2017-07-09T01:44:45.788Z,18.00
2017-07-09T01:47:14.983Z,18.10
2017-07-09T01:49:43.860Z,18.20
2017-07-09T01:52:12.310Z,18.40
2017-07-09T01:54:40.787Z,18.40
2017-07-09T01:57:09.311Z,18.30
2017-07-09T01:59:37.841Z,18.30
2017-07-09T02:02:05.941Z,18.20
2017-07-09T02:04:34.438Z,18.20
2017-07-09T02:07:02.897Z,18.20
2017-07-09T02:09:31.319Z,18.20
2017-07-09T02:11:59.805Z,18.20
2017-07-09T02:14:28.636Z,18.10
2017-07-09T02:16:57.904Z,18.10
2017-07-09T02:19:27.114Z,18.20
2017-07-09T02:21:55.568Z,18.20
2017-07-09T02:24:24.820Z,18.10
2017-07-09T02:26:53.255Z,18.00
2017-07-09T02:29:22.499Z,18.00
2017-07-09T02:31:50.949Z,18.00
2017-07-09T02:34:19.467Z,18.00
2017-07-09T02:36:47.900Z,17.90
2017-07-09T02:39:16.335Z,17.80
2017-07-09T02:41:44.799Z,17.70
2017-07-09T02:44:13.246Z,17.70
2017-07-09T02:46:41.749Z,17.60
2017-07-09T02:49:10.191Z,17.60
2017-07-09T02:51:38.637Z,17.60
2017-07-09T02:54:07.137Z,17.60
2017-07-09T02:56:35.650Z,17.60
2017-07-09T02:59:04.081Z,17.60
2017-07-09T03:01:33.135Z,17.50
2017-07-09T03:04:01.557Z,17.60
2017-07-09T03:06:29.361Z,17.70
2017-07-09T03:08:57.852Z,17.80
2017-07-09T03:11:27.045Z,17.80
2017-07-09T03:13:55.485Z,17.90
2017-07-09T03:16:23.960Z,17.90
2017-07-09T03:18:52.407Z,18.10
2017-07-09T03:21:20.834Z,18.30
2017-07-09T03:23:49.323Z,18.50
2017-07-09T03:26:17.771Z,18.60
2017-07-09T03:28:46.617Z,18.70
2017-07-09T03:31:15.117Z,18.70
2017-07-09T03:33:43.567Z,18.80
2017-07-09T03:36:12.819Z,18.90
2017-07-09T03:38:41.301Z,18.90
2017-07-09T03:41:09.729Z,19.00
2017-07-09T03:43:38.211Z,19.10
2017-07-09T03:46:07.470Z,19.20
2017-07-09T03:48:35.899Z,19.30
2017-07-09T03:51:04.349Z,19.40
2017-07-09T03:53:32.819Z,19.40
2017-07-09T03:56:01.248Z,19.40
2017-07-09T03:58:30.018Z,19.50
2017-07-09T04:00:59.580Z,19.50
2017-07-09T04:03:28.009Z,19.60
2017-07-09T04:05:56.444Z,19.60
2017-07-09T04:08:24.896Z,19.50
2017-07-09T04:10:53.365Z,19.50
2017-07-09T04:13:22.612Z,19.50
2017-07-09T04:15:51.048Z,19.50
2017-07-09T04:18:19.480Z,19.50
2017-07-09T04:20:47.281Z,19.60
2017-07-09T04:23:15.711Z,19.60
2017-07-09T04:25:44.148Z,19.80
2017-07-09T04:28:12.638Z,19.80
2017-07-09T04:30:41.068Z,19.80
2017-07-09T04:33:09.499Z,19.80
2017-07-09T04:35:37.985Z,19.90
2017-07-09T04:38:06.407Z,19.90
2017-07-09T04:40:34.839Z,20.00
2017-07-09T04:43:03.314Z,20.00
2017-07-09T04:45:31.792Z,20.00
2017-07-09T04:48:00.290Z,20.00
2017-07-09T04:50:28.744Z,20.00
2017-07-09T04:52:57.576Z,20.10
2017-07-09T04:55:26.044Z,20.10
2017-07-09T04:57:54.491Z,20.10
2017-07-09T05:00:22.928Z,20.00
2017-07-09T05:02:51.430Z,20.00
2017-07-09T05:05:20.625Z,20.10
2017-07-09T05:07:49.057Z,20.20
2017-07-09T05:10:17.530Z,20.10
2017-07-09T05:12:46.740Z,20.20
2017-07-09T05:15:16.149Z,20.30
2017-07-09T05:17:44.671Z,20.60
2017-07-09T05:20:13.113Z,20.80
2017-07-09T05:22:41.552Z,21.00
2017-07-09T05:25:10.013Z,21.10
2017-07-09T05:27:38.490Z,21.00
2017-07-09T05:30:06.934Z,21.00
2017-07-09T05:32:35.374Z,21.20
2017-07-09T05:35:04.252Z,21.30
2017-07-09T05:37:32.675Z,21.40
2017-07-09T05:40:01.105Z,21.70
2017-07-09T05:42:29.585Z,22.00
2017-07-09T05:44:58.076Z,22.40
2017-07-09T05:47:26.524Z,22.80
2017-07-09T05:49:54.979Z,23.20
2017-07-09T05:52:23.479Z,23.20
2017-07-09T05:54:51.908Z,23.30
2017-07-09T05:57:20.349Z,23.20
2017-07-09T05:59:48.831Z,22.80
2017-07-09T06:02:17.273Z,22.30
2017-07-09T06:04:45.756Z,21.70
2017-07-09T06:07:14.184Z,21.10
2017-07-09T06:09:42.608Z,20.70
2017-07-09T06:12:11.852Z,20.60
2017-07-09T06:14:40.290Z,20.50
2017-07-09T06:17:08.712Z,20.40
2017-07-09T06:19:37.209Z,20.50
2017-07-09T06:22:05.645Z,20.50
2017-07-09T06:24:34.072Z,20.60
2017-07-09T06:27:02.580Z,20.60
2017-07-09T06:29:32.450Z,20.40
2017-07-09T06:32:00.889Z,20.30
2017-07-09T06:34:29.365Z,20.30
2017-07-09T06:36:57.866Z,20.30
2017-07-09T06:39:26.312Z,20.50
2017-07-09T06:41:55.518Z,20.70
2017-07-09T06:44:23.999Z,20.90
2017-07-09T06:46:53.196Z,21.10
2017-07-09T06:49:22.407Z,21.10
2017-07-09T06:51:50.893Z,21.00
2017-07-09T06:54:19.333Z,20.80
2017-07-09T06:56:48.455Z,20.70
2017-07-09T06:59:16.924Z,20.60
2017-07-09T07:01:45.782Z,20.80
2017-07-09T07:04:14.251Z,21.00
2017-07-09T07:06:42.744Z,21.30
2017-07-09T07:09:11.181Z,21.70
2017-07-09T07:11:39.617Z,22.10
2017-07-09T07:14:08.117Z,22.10
2017-07-09T07:16:36.582Z,22.10
2017-07-09T07:19:05.008Z,22.30
2017-07-09T07:21:33.456Z,22.60
2017-07-09T07:24:01.932Z,23.00
2017-07-09T07:26:30.432Z,23.60
2017-07-09T07:28:58.915Z,24.20
2017-07-09T07:31:27.395Z,24.70
2017-07-09T07:33:55.829Z,25.00
2017-07-09T07:36:24.318Z,25.60
2017-07-09T07:38:52.761Z,26.10
2017-07-09T07:41:21.200Z,27.30
2017-07-09T07:43:49.672Z,29.10
2017-07-09T07:46:18.502Z,30.20
2017-07-09T07:48:46.932Z,30.90
2017-07-09T07:51:15.417Z,31.60
2017-07-09T07:53:43.849Z,32.40
2017-07-09T07:56:13.083Z,31.80
2017-07-09T07:58:41.557Z,33.30
2017-07-09T08:01:10.018Z,35.40
2017-07-09T08:03:38.513Z,34.90
2017-07-09T08:06:06.944Z,36.20
2017-07-09T08:08:35.465Z,35.60
2017-07-09T08:11:03.906Z,36.00
2017-07-09T08:13:32.358Z,35.90
2017-07-09T08:16:00.854Z,36.10
2017-07-09T08:18:29.286Z,35.50
2017-07-09T08:20:57.729Z,36.40
2017-07-09T08:23:25.541Z,36.50
2017-07-09T08:25:53.986Z,36.10
2017-07-09T08:28:22.855Z,37.20
2017-07-09T08:30:51.332Z,37.60
2017-07-09T08:33:19.825Z,38.40
2017-07-09T08:35:48.258Z,39.60
2017-07-09T08:38:17.258Z,39.80
2017-07-09T08:40:45.758Z,38.90
2017-07-09T08:43:14.242Z,40.30
2017-07-09T08:45:42.676Z,40.00
2017-07-09T08:48:11.178Z,40.70
2017-07-09T08:50:39.669Z,36.70
2017-07-09T08:53:08.125Z,37.40
2017-07-09T08:55:36.644Z,37.70
2017-07-09T08:58:05.087Z,37.70
2017-07-09T09:00:33.510Z,36.70
2017-07-09T09:03:02.003Z,35.70
2017-07-09T09:05:30.478Z,38.40
2017-07-09T09:07:58.914Z,39.70
2017-07-09T09:10:27.381Z,40.90
2017-07-09T09:12:56.213Z,42.70
2017-07-09T09:15:24.697Z,41.60
2017-07-09T09:17:53.191Z,40.10
2017-07-09T09:20:21.666Z,36.70
2017-07-09T09:22:50.109Z,36.50
2017-07-09T09:25:18.601Z,36.10
2017-07-09T09:27:47.046Z,36.40
2017-07-09T09:30:16.251Z,36.90
2017-07-09T09:32:44.832Z,35.80
2017-07-09T09:35:14.040Z,34.20
2017-07-09T09:37:42.478Z,33.50
2017-07-09T09:40:10.980Z,33.40
2017-07-09T09:42:40.213Z,32.90
2017-07-09T09:45:09.099Z,33.70
2017-07-09T09:47:37.524Z,34.00
2017-07-09T09:50:06.007Z,33.70
2017-07-09T09:52:34.922Z,33.50
2017-07-09T09:55:04.128Z,33.90
2017-07-09T09:57:33.326Z,33.80
2017-07-09T10:00:01.768Z,32.70
2017-07-09T10:02:30.190Z,33.30
2017-07-09T10:04:57.985Z,32.00
2017-07-09T10:07:26.442Z,32.00
2017-07-09T10:09:55.688Z,34.20
2017-07-09T10:12:24.162Z,36.00
2017-07-09T10:14:52.582Z,37.10
2017-07-09T10:17:21.020Z,36.10
2017-07-09T10:19:49.903Z,35.40
2017-07-09T10:22:18.733Z,35.20
2017-07-09T10:24:47.167Z,34.60
2017-07-09T10:27:16.050Z,34.10
2017-07-09T10:29:44.485Z,34.30
2017-07-09T10:32:12.931Z,34.30
2017-07-09T10:34:41.413Z,34.00
2017-07-09T10:37:09.886Z,33.80
2017-07-09T10:39:38.374Z,33.50
2017-07-09T10:42:06.812Z,32.40
2017-07-09T10:44:35.743Z,32.90
2017-07-09T10:47:04.178Z,33.70
2017-07-09T10:49:33.374Z,33.80
2017-07-09T10:52:01.850Z,33.60
2017-07-09T10:54:29.936Z,36.00
2017-07-09T10:56:58.099Z,38.90
2017-07-09T10:59:26.576Z,39.70
2017-07-09T11:01:55.820Z,40.70
2017-07-09T11:04:24.259Z,41.90
2017-07-09T11:06:53.486Z,42.20
2017-07-09T11:09:21.989Z,42.30
2017-07-09T11:11:50.431Z,43.80
2017-07-09T11:14:19.324Z,44.60
2017-07-09T11:16:47.850Z,45.20
2017-07-09T11:19:16.279Z,46.50
2017-07-09T11:21:44.717Z,44.30
2017-07-09T11:24:13.213Z,42.60
2017-07-09T11:26:42.045Z,42.30
2017-07-09T11:29:10.476Z,41.20
2017-07-09T11:31:38.956Z,42.30
2017-07-09T11:34:07.423Z,44.20
2017-07-09T11:36:35.880Z,45.30
2017-07-09T11:39:03.487Z,44.30
2017-07-09T11:41:31.970Z,43.50
2017-07-09T11:44:14.276Z,42.80
2017-07-09T11:46:43.668Z,41.60
2017-07-09T11:52:11.836Z,41.70
2017-07-09T11:54:41.764Z,38.90
2017-07-09T11:57:10.989Z,38.30
2017-07-09T11:59:39.431Z,37.90
2017-07-09T12:02:07.947Z,38.40
2017-07-09T12:04:36.366Z,40.10
2017-07-09T12:07:05.565Z,40.60
2017-07-09T12:09:34.865Z,40.40
2017-07-09T12:12:03.296Z,40.50
2017-07-09T12:14:31.737Z,40.40
2017-07-09T12:17:00.626Z,40.50
2017-07-09T12:19:29.075Z,40.20
2017-07-09T12:21:57.895Z,39.30
2017-07-09T12:24:26.364Z,39.30
2017-07-09T12:26:54.799Z,38.90
2017-07-09T12:29:24.252Z,38.60
2017-07-09T12:31:52.698Z,39.40
2017-07-09T12:34:21.141Z,40.00
2017-07-09T12:36:50.201Z,38.70
2017-07-09T12:39:19.404Z,37.60
2017-07-09T12:41:47.837Z,38.00
2017-07-09T12:44:16.551Z,37.40
2017-07-09T12:46:45.799Z,37.60
2017-07-09T12:49:14.250Z,39.10
2017-07-09T12:51:43.454Z,41.60
2017-07-09T12:54:11.935Z,41.00
2017-07-09T12:56:40.364Z,38.40
2017-07-09T12:59:08.922Z,38.70
2017-07-09T13:01:37.474Z,38.00
2017-07-09T13:04:05.907Z,36.00
2017-07-09T13:06:34.360Z,34.90
2017-07-09T13:09:02.835Z,35.20
2017-07-09T13:11:31.265Z,34.70
2017-07-09T13:13:59.738Z,35.20
2017-07-09T13:16:28.173Z,34.20
2017-07-09T13:18:56.608Z,33.20
2017-07-09T13:21:25.157Z,33.30
2017-07-09T13:23:53.583Z,33.30
2017-07-09T13:26:22.043Z,32.80
2017-07-09T13:28:50.520Z,32.50
2017-07-09T13:31:18.978Z,32.40
2017-07-09T13:33:47.458Z,32.10
2017-07-09T13:36:15.572Z,31.50
2017-07-09T13:38:44.016Z,31.30
2017-07-09T13:41:12.491Z,30.60
2017-07-09T13:43:40.924Z,30.40
2017-07-09T13:46:10.182Z,30.00
2017-07-09T13:48:38.613Z,29.70
2017-07-09T13:51:07.031Z,29.50
2017-07-09T13:53:35.925Z,29.30
2017-07-09T13:56:04.364Z,28.90
2017-07-09T13:58:33.560Z,28.40
2017-07-09T14:01:02.058Z,28.10
2017-07-09T14:03:30.894Z,27.90
2017-07-09T14:05:58.768Z,27.70
2017-07-09T14:08:27.241Z,27.60
2017-07-09T14:10:55.724Z,27.60
2017-07-09T14:13:24.170Z,27.50
2017-07-09T14:15:52.608Z,27.40
2017-07-09T14:18:21.060Z,27.40
2017-07-09T14:20:49.148Z,27.30
2017-07-09T14:23:17.621Z,27.30
2017-07-09T14:25:46.061Z,27.20
2017-07-09T14:28:14.560Z,27.00
2017-07-09T14:30:44.059Z,26.90
2017-07-09T14:33:12.498Z,26.90
2017-07-09T14:35:41.412Z,26.90
2017-07-09T14:38:09.924Z,26.80
2017-07-09T14:40:38.379Z,26.60
2017-07-09T14:43:06.821Z,26.60
2017-07-09T14:45:35.688Z,26.50
2017-07-09T14:48:04.899Z,26.40
2017-07-09T14:50:33.372Z,26.40
2017-07-09T14:53:01.819Z,26.30
2017-07-09T14:55:30.714Z,26.00
2017-07-09T14:57:59.188Z,26.20
2017-07-09T15:00:27.668Z,26.10
2017-07-09T15:02:55.489Z,25.90
2017-07-09T15:05:23.912Z,25.80
2017-07-09T15:07:52.385Z,25.60
2017-07-09T15:10:20.858Z,25.60
2017-07-09T15:12:49.311Z,25.60
2017-07-09T15:15:17.776Z,25.50
2017-07-09T15:17:46.606Z,25.40
2017-07-09T15:20:15.084Z,25.30
2017-07-09T15:22:43.533Z,25.20
2017-07-09T15:25:12.791Z,25.00
2017-07-09T15:27:41.223Z,25.00
2017-07-09T15:30:09.662Z,25.00
2017-07-09T15:32:38.153Z,25.10
2017-07-09T15:35:06.597Z,25.20
2017-07-09T15:37:35.038Z,25.30
2017-07-09T15:40:04.568Z,25.40
2017-07-09T15:42:32.995Z,25.40
2017-07-09T15:45:01.448Z,25.30
2017-07-09T15:47:30.327Z,25.20
2017-07-09T15:49:59.151Z,25.30
2017-07-09T15:52:28.043Z,25.40
2017-07-09T15:54:56.532Z,25.70
2017-07-09T15:57:24.980Z,26.10
2017-07-09T15:59:53.462Z,26.20
2017-07-09T16:02:22.660Z,26.40
2017-07-09T16:04:51.165Z,26.60
2017-07-09T16:07:19.592Z,26.50
2017-07-09T16:09:48.048Z,26.50
2017-07-09T16:12:16.527Z,26.70
2017-07-09T16:14:45.779Z,27.10
2017-07-09T16:17:14.217Z,27.00
2017-07-09T16:19:42.638Z,26.70
2017-07-09T16:22:11.142Z,26.40
2017-07-09T16:24:39.628Z,26.30
2017-07-09T16:27:08.186Z,26.30
2017-07-09T16:29:37.416Z,26.40
2017-07-09T16:32:06.663Z,26.30
2017-07-09T16:34:35.175Z,26.30
2017-07-09T16:37:03.622Z,26.00
2017-07-09T16:39:32.049Z,25.70
2017-07-09T16:42:00.572Z,25.60
2017-07-09T16:44:28.997Z,25.60
2017-07-09T16:46:57.529Z,25.50
2017-07-09T16:49:26.000Z,25.40
2017-07-09T16:51:54.478Z,25.10
2017-07-09T16:54:22.910Z,24.90
2017-07-09T16:56:52.941Z,24.70
2017-07-09T16:59:21.408Z,24.60
2017-07-09T17:01:49.888Z,24.30
2017-07-09T17:04:18.314Z,24.00
2017-07-09T17:06:46.082Z,23.90
2017-07-09T17:09:14.564Z,23.80
2017-07-09T17:11:42.996Z,23.70
2017-07-09T17:14:11.421Z,23.60
2017-07-09T17:16:39.882Z,23.60
2017-07-09T17:19:08.330Z,23.70
2017-07-09T17:21:36.791Z,23.70
2017-07-09T17:24:05.221Z,23.70
2017-07-09T17:26:33.695Z,23.70
2017-07-09T17:29:02.885Z,23.70
2017-07-09T17:31:32.105Z,23.90
2017-07-09T17:34:00.962Z,24.00
2017-07-09T17:36:29.784Z,24.00
2017-07-09T17:38:58.204Z,24.20
2017-07-09T17:41:26.661Z,24.40
2017-07-09T17:43:56.792Z,24.60
2017-07-09T17:46:25.282Z,24.80
2017-07-09T17:48:53.729Z,24.80
2017-07-09T17:51:22.158Z,25.00
2017-07-09T17:53:50.631Z,25.10
2017-07-09T17:56:19.116Z,25.10
2017-07-09T17:58:47.939Z,25.40
2017-07-09T18:01:17.154Z,25.60
2017-07-09T18:03:45.993Z,25.50
2017-07-09T18:06:14.857Z,25.30
2017-07-09T18:08:43.739Z,25.00
2017-07-09T18:11:12.174Z,24.70
2017-07-09T18:13:41.371Z,24.50
2017-07-09T18:16:10.246Z,24.40
2017-07-09T18:18:39.111Z,24.30
2017-07-09T18:21:08.003Z,24.20
2017-07-09T18:23:36.823Z,24.00
2017-07-09T18:26:05.639Z,23.80
2017-07-09T18:28:34.514Z,23.70
2017-07-09T18:31:03.934Z,23.70
2017-07-09T18:33:32.432Z,23.70
2017-07-09T18:36:01.286Z,23.70
2017-07-09T18:38:29.717Z,23.60
2017-07-09T18:40:58.164Z,23.50
2017-07-09T18:43:27.409Z,23.40
2017-07-09T18:45:55.845Z,23.30
2017-07-09T18:48:24.275Z,23.20
2017-07-09T18:50:53.186Z,23.00
2017-07-09T18:53:22.397Z,23.10
2017-07-09T18:55:50.878Z,22.90
2017-07-09T18:58:19.332Z,22.80
2017-07-09T19:00:47.819Z,22.60
2017-07-09T19:03:16.256Z,22.60
2017-07-09T19:05:44.693Z,22.40
2017-07-09T19:08:13.284Z,22.40
2017-07-09T19:10:41.731Z,22.30
2017-07-09T19:13:10.183Z,22.30
2017-07-09T19:15:38.677Z,22.30
2017-07-09T19:18:07.144Z,22.30
2017-07-09T19:20:35.582Z,22.30
2017-07-09T19:23:05.181Z,22.30
2017-07-09T19:25:33.973Z,22.30
2017-07-09T19:28:03.222Z,22.40
2017-07-09T19:30:32.117Z,22.40
2017-07-09T19:33:00.633Z,22.40
2017-07-09T19:35:29.141Z,22.40
2017-07-09T19:37:57.586Z,22.50
2017-07-09T19:40:26.025Z,22.50
2017-07-09T19:42:55.736Z,22.70
2017-07-09T19:45:25.192Z,22.60
2017-07-09T19:47:54.434Z,22.60
2017-07-09T19:50:22.948Z,22.50
2017-07-09T19:52:51.376Z,22.50
2017-07-09T19:55:20.600Z,22.50
2017-07-09T19:57:49.112Z,22.40
2017-07-09T20:00:17.558Z,22.30
2017-07-09T20:02:46.497Z,22.30
2017-07-09T20:05:15.026Z,22.30
2017-07-09T20:07:43.506Z,22.30
2017-07-09T20:10:11.943Z,22.30
2017-07-09T20:12:40.443Z,22.30
2017-07-09T20:15:08.899Z,22.30
2017-07-09T20:17:37.369Z,22.30
2017-07-09T20:20:05.858Z,22.20
2017-07-09T20:22:33.531Z,22.20
2017-07-09T20:25:01.971Z,22.20
2017-07-09T20:27:30.417Z,22.10
2017-07-09T20:29:59.292Z,22.00
2017-07-09T20:32:27.721Z,21.80
2017-07-09T20:34:57.342Z,21.70
2017-07-09T20:37:25.790Z,21.60
2017-07-09T20:39:54.616Z,21.50
2017-07-09T20:42:23.093Z,21.30
2017-07-09T20:44:51.592Z,21.00
2017-07-09T20:47:20.029Z,20.80
2017-07-09T20:49:48.464Z,20.70
2017-07-09T20:52:16.937Z,20.60
2017-07-09T20:54:45.428Z,20.40
2017-07-09T20:57:14.255Z,19.90
2017-07-09T20:59:43.840Z,19.40
2017-07-09T21:02:12.454Z,18.60
2017-07-09T21:04:40.896Z,18.40
2017-07-09T21:07:09.755Z,18.20
2017-07-09T21:09:38.239Z,18.00
2017-07-09T21:12:07.131Z,17.90
2017-07-09T21:14:36.228Z,17.90
2017-07-09T21:17:05.086Z,18.10
2017-07-09T21:19:33.943Z,18.30
2017-07-09T21:22:02.762Z,18.40
2017-07-09T21:24:31.652Z,18.50
2017-07-09T21:27:00.473Z,18.60
2017-07-09T21:29:29.294Z,18.70
2017-07-09T21:31:58.175Z,18.80
2017-07-09T21:34:27.020Z,18.70
2017-07-09T21:36:55.885Z,18.80
2017-07-09T21:39:24.702Z,18.80
2017-07-09T21:41:53.537Z,18.90
2017-07-09T21:44:21.755Z,19.00
2017-07-09T21:46:50.956Z,19.00
2017-07-09T21:49:19.805Z,19.10
2017-07-09T21:51:48.704Z,19.10
2017-07-09T21:54:17.889Z,19.00
2017-07-09T21:56:46.462Z,19.20
2017-07-09T21:59:15.366Z,19.10
2017-07-09T22:01:44.195Z,19.10
2017-07-09T22:04:13.094Z,19.20
2017-07-09T22:06:41.960Z,19.20
2017-07-09T22:09:10.794Z,19.20
2017-07-09T22:11:39.694Z,19.30
2017-07-09T22:14:08.513Z,19.20
2017-07-09T22:16:37.357Z,19.20
2017-07-09T22:19:06.317Z,19.20
2017-07-09T22:21:35.159Z,19.20
2017-07-09T22:24:03.994Z,19.20
2017-07-09T22:26:32.574Z,19.30
2017-07-09T22:29:01.397Z,19.10
2017-07-09T22:31:30.217Z,19.00
2017-07-09T22:33:59.501Z,19.00
2017-07-09T22:36:27.948Z,19.00
2017-07-09T22:38:57.032Z,19.00
2017-07-09T22:41:25.895Z,19.00
2017-07-09T22:43:54.709Z,19.00
2017-07-09T22:46:23.197Z,18.90
2017-07-09T22:48:52.919Z,18.80
2017-07-09T22:51:21.353Z,18.80
2017-07-09T22:53:49.793Z,18.80
2017-07-09T22:56:18.652Z,18.70
2017-07-09T22:58:47.484Z,18.60
2017-07-09T23:01:16.170Z,18.70
2017-07-09T23:03:45.365Z,18.70
2017-07-09T23:06:14.192Z,18.60
2017-07-09T23:08:43.020Z,18.50
2017-07-09T23:11:11.691Z,18.60
2017-07-09T23:13:40.562Z,18.60
2017-07-09T23:16:09.574Z,18.40
2017-07-09T23:18:38.044Z,18.30
2017-07-09T23:21:06.915Z,18.30
2017-07-09T23:23:35.749Z,18.30
2017-07-09T23:26:04.973Z,18.20
2017-07-09T23:28:33.825Z,18.00
2017-07-09T23:31:02.642Z,18.00
2017-07-09T23:33:31.882Z,18.00
2017-07-09T23:36:00.344Z,18.00
2017-07-09T23:38:29.156Z,18.20
2017-07-09T23:40:58.033Z,18.20
2017-07-09T23:43:26.929Z,18.10
2017-07-09T23:45:56.111Z,18.00
2017-07-09T23:48:24.540Z,17.90
2017-07-09T23:50:53.411Z,17.80
2017-07-09T23:53:22.235Z,17.70
2017-07-09T23:55:51.065Z,17.60
2017-07-09T23:58:19.935Z,17.60
